Time;durP1;ratioP1;P1;durP2;ratioP2;P2;SDS_P1;SDS_P2;PMS_P1;PMS_P2;Temp;Humidity;BMP_temperature;BMP_pressure;BME280_temperature;BME280_humidity;BME280_pressure;Samples;Min_cycle;Max_cycle;Signal;HPM_P1;HPM_P2
2022/12/01 00:01:15;;;;;;;48.85;22.80;;;;;;;4.32;100.00;102850.84;6253772;22;20461;-75
2022/12/01 00:03:41;;;;;;;51.35;22.45;;;;;;;4.33;100.00;102855.03;6281503;22;20019;-74
2022/12/01 00:06:16;;;;;;;41.28;21.85;;;;;;;4.33;100.00;102851.63;6281277;22;20027;-74
2022/12/01 00:10:24;;;;;;;42.28;22.13;;;;;;;4.34;100.00;102853.16;6281792;22;20032;-75
2022/12/01 00:11:32;;;;;;;44.10;21.30;;;;;;;4.35;100.00;102852.03;6253797;22;20497;-74
2022/12/01 00:13:59;;;;;;;44.38;22.00;;;;;;;4.36;100.00;102850.94;6253524;22;20017;-75
2022/12/01 00:16:26;;;;;;;42.83;21.52;;;;;;;4.37;100.00;102849.81;6281118;22;20020;-75
2022/12/01 00:18:53;;;;;;;43.38;22.10;;;;;;;4.39;100.00;102855.53;6254065;22;20463;-75
2022/12/01 00:21:22;;;;;;;43.53;22.10;;;;;;;4.40;100.00;102848.38;6254075;22;20960;-74
2022/12/01 00:23:51;;;;;;;47.38;22.48;;;;;;;4.41;100.00;102847.22;6281287;22;20020;-75
2022/12/01 00:26:19;;;;;;;44.47;21.20;;;;;;;4.40;100.00;102849.09;6280149;22;20024;-75
2022/12/01 00:28:57;;;;;;;42.65;21.30;;;;;;;4.41;100.00;102847.22;6281441;22;20016;-74
2022/12/01 00:31:24;;;;;;;43.65;21.80;;;;;;;4.40;100.00;102849.09;6280897;22;20012;-75
2022/12/01 00:33:51;;;;;;;45.47;22.15;;;;;;;4.41;100.00;102852.50;6281015;22;20031;-75
2022/12/01 00:36:18;;;;;;;42.22;22.55;;;;;;;4.42;100.00;102852.16;6280639;22;20024;-75
2022/12/01 00:38:45;;;;;;;40.90;21.10;;;;;;;4.42;100.00;102852.16;6281282;22;20020;-75
2022/12/01 00:41:11;;;;;;;41.50;22.02;;;;;;;4.43;100.00;102848.41;6280675;22;20077;-74
2022/12/01 00:43:38;;;;;;;40.78;22.17;;;;;;;4.44;100.00;102852.59;6280742;22;20039;-75
2022/12/01 00:46:05;;;;;;;39.50;20.70;;;;;;;4.43;100.00;102843.16;6280772;22;20082;-75
2022/12/01 00:48:32;;;;;;;44.15;21.58;;;;;;;4.43;100.00;102845.78;6280859;22;20012;-75
2022/12/01 00:51:00;;;;;;;37.08;20.45;;;;;;;4.45;100.00;102845.44;6281049;22;20024;-75
2022/12/01 00:53:26;;;;;;;43.65;21.33;;;;;;;4.45;100.00;102840.16;6280618;22;20016;-75
2022/12/01 00:55:53;;;;;;;42.70;21.17;;;;;;;4.45;100.00;102851.47;6280549;22;20021;-75
2022/12/01 00:58:20;;;;;;;39.50;21.27;;;;;;;4.45;100.00;102850.72;6280737;22;20091;-75
2022/12/01 01:00:46;;;;;;;42.58;20.85;;;;;;;4.47;100.00;102848.50;6281047;22;20040;-75
2022/12/01 01:03:13;;;;;;;40.95;21.10;;;;;;;4.47;100.00;102851.91;6280641;22;20462;-75
2022/12/01 01:05:41;;;;;;;37.33;19.83;;;;;;;4.46;100.00;102846.97;6253535;22;20024;-75
2022/12/01 01:08:11;;;;;;;42.28;19.95;;;;;;;4.47;100.00;102849.25;6281023;22;20012;-75
2022/12/01 01:10:41;;;;;;;42.28;19.90;;;;;;;4.49;100.00;102856.81;6280219;22;20047;-75
2022/12/01 01:13:08;;;;;;;44.63;20.60;;;;;;;4.48;100.00;102861.34;6281385;22;20418;-75
2022/12/01 01:15:35;;;;;;;37.58;19.20;;;;;;;4.49;100.00;102859.47;6280640;22;20020;-75
2022/12/01 01:18:01;;;;;;;41.70;19.80;;;;;;;4.51;100.00;102865.16;6281021;22;20092;-75
2022/12/01 01:20:28;;;;;;;40.85;19.17;;;;;;;4.52;100.00;102867.44;6280652;22;20075;-75
2022/12/01 01:22:55;;;;;;;37.55;19.35;;;;;;;4.54;100.00;102867.09;6281280;22;20088;-75
2022/12/01 01:25:21;;;;;;;41.78;20.33;;;;;;;4.54;100.00;102870.50;6280138;22;20099;-75
2022/12/01 01:27:48;;;;;;;38.30;19.38;;;;;;;4.53;100.00;102865.56;6281050;22;20039;-74
2022/12/01 01:30:15;;;;;;;40.70;19.77;;;;;;;4.54;100.00;102861.84;6280745;22;20032;-75
2022/12/01 01:32:42;;;;;;;38.05;19.75;;;;;;;4.55;100.00;102864.13;6280901;22;20449;-74
2022/12/01 01:35:08;;;;;;;39.70;18.67;;;;;;;4.54;100.00;102869.75;6280913;22;20027;-74
2022/12/01 01:37:35;;;;;;;38.60;19.35;;;;;;;4.55;100.00;102861.50;6280696;22;20055;-74
2022/12/01 01:40:01;;;;;;;38.47;19.38;;;;;;;4.57;100.00;102866.41;6280340;22;20430;-74
2022/12/01 01:42:28;;;;;;;40.40;20.17;;;;;;;4.57;100.00;102872.47;6280389;22;20016;-74
2022/12/01 01:44:56;;;;;;;34.97;19.73;;;;;;;4.59;100.00;102869.47;6280218;22;20489;-74
2022/12/01 01:47:31;;;;;;;36.42;19.00;;;;;;;4.59;100.00;102864.97;6280037;22;20023;-74
2022/12/01 01:50:05;;;;;;;39.58;20.25;;;;;;;4.59;100.00;102864.97;6280708;22;20094;-74
2022/12/01 01:52:33;;;;;;;38.88;19.02;;;;;;;4.60;100.00;102869.13;6280526;22;20350;-74
2022/12/01 01:55:00;;;;;;;46.95;19.08;;;;;;;4.59;100.00;102866.84;6280277;22;20035;-75
2022/12/01 01:57:29;;;;;;;39.53;19.63;;;;;;;4.58;100.00;102873.22;6253367;22;20047;-74
2022/12/01 02:00:03;;;;;;;40.17;19.83;;;;;;;4.59;100.00;102864.19;6280474;22;20012;-75
2022/12/01 02:02:42;;;;;;;39.45;19.67;;;;;;;4.61;100.00;102873.31;6254994;22;20046;-74
2022/12/01 02:05:15;;;;;;;42.55;19.40;;;;;;;4.61;100.00;102873.31;6280656;22;20079;-74
2022/12/01 02:07:41;;;;;;;41.28;20.38;;;;;;;4.60;100.00;102866.50;6280788;22;20019;-74
2022/12/01 02:10:11;;;;;;;41.40;19.13;;;;;;;4.60;100.00;102874.41;6280588;22;20016;-74
2022/12/01 02:12:55;;;;;;;43.90;20.20;;;;;;;4.61;100.00;102862.75;6280133;22;20042;-74
2022/12/01 02:15:46;;;;;;;40.38;20.25;;;;;;;4.60;100.00;102863.09;6281215;22;20055;-74
2022/12/01 02:18:37;;;;;;;44.17;20.70;;;;;;;4.61;100.00;102856.72;6282019;22;20023;-74
2022/12/01 02:21:16;;;;;;;41.85;20.27;;;;;;;4.63;100.00;102865.03;6254429;22;20016;-75
2022/12/01 02:24:19;;;;;;;45.65;19.88;;;;;;;4.62;100.00;102855.59;6281267;22;20426;-75
2022/12/01 02:26:51;;;;;;;47.75;19.77;;;;;;;4.61;100.00;102857.47;6281800;22;20021;-74
2022/12/01 02:29:34;;;;;;;39.67;20.30;;;;;;;4.62;100.00;102860.88;6281682;22;20023;-74
2022/12/01 02:32:26;;;;;;;43.13;20.13;;;;;;;4.61;100.00;102861.97;6281966;22;20043;-74
2022/12/01 02:35:15;;;;;;;49.97;21.45;;;;;;;4.62;100.00;102859.00;6281900;22;20019;-74
2022/12/01 02:38:07;;;;;;;44.47;20.58;;;;;;;4.62;100.00;102863.50;6281394;22;20020;-74
2022/12/01 02:40:56;;;;;;;43.97;20.92;;;;;;;4.60;100.00;102858.59;6270957;22;20024;-74
2022/12/01 02:43:27;;;;;;;41.45;20.42;;;;;;;4.61;100.00;102854.06;6280875;22;20016;-75
2022/12/01 02:46:13;;;;;;;42.97;20.83;;;;;;;4.61;100.00;102856.72;6254157;22;20023;-75
2022/12/01 02:48:45;;;;;;;43.92;20.67;;;;;;;4.61;100.00;102861.97;6281903;22;20020;-75
2022/12/01 02:51:34;;;;;;;44.80;20.45;;;;;;;4.61;100.00;102862.75;6281926;22;20012;-75
2022/12/01 02:54:02;;;;;;;45.03;20.27;;;;;;;4.61;100.00;102861.97;6281626;22;20035;-75
2022/12/01 02:56:29;;;;;;;40.47;19.50;;;;;;;4.61;100.00;102859.34;6281474;22;20019;-75
2022/12/01 02:58:55;;;;;;;49.17;21.30;;;;;;;4.60;100.00;102865.72;6281724;22;20020;-75
2022/12/01 03:01:34;;;;;;;44.30;19.80;;;;;;;4.60;100.00;102865.72;6254497;22;20012;-75
2022/12/01 03:04:33;;;;;;;45.33;20.42;;;;;;;4.60;100.00;102868.38;6281803;22;20087;-75
2022/12/01 03:07:25;;;;;;;44.35;19.55;;;;;;;4.61;100.00;102865.38;6281209;22;20444;-73
2022/12/01 03:09:58;;;;;;;48.85;19.88;;;;;;;4.61;100.00;102860.09;6281848;22;20119;-75
2022/12/01 03:12:59;;;;;;;47.42;21.15;;;;;;;4.62;100.00;102868.78;6281266;22;20044;-75
2022/12/01 03:15:55;;;;;;;42.97;20.05;;;;;;;4.62;100.00;102874.81;6281309;22;20092;-75
2022/12/01 03:18:42;;;;;;;52.28;21.55;;;;;;;4.62;100.00;102877.47;6281262;22;20018;-74
2022/12/01 03:22:00;;;;;;;48.35;20.02;;;;;;;4.62;100.00;102869.56;6281154;22;20438;-74
2022/12/01 03:24:31;;;;;;;43.20;20.27;;;;;;;4.62;100.00;102866.91;6213750;22;20051;-75
2022/12/01 03:27:01;;;;;;;40.45;19.27;;;;;;;4.61;100.00;102865.38;6281597;22;20016;-76
2022/12/01 03:29:38;;;;;;;47.47;21.15;;;;;;;4.63;100.00;102865.03;6280958;22;20051;-76
2022/12/01 03:32:14;;;;;;;42.63;19.35;;;;;;;4.63;100.00;102865.03;6281403;22;20016;-76
2022/12/01 03:34:50;;;;;;;45.17;20.90;;;;;;;4.64;100.00;102871.84;6279797;22;20044;-76
2022/12/01 03:37:24;;;;;;;45.85;19.73;;;;;;;4.62;100.00;102866.91;6281183;22;20048;-77
2022/12/01 03:39:56;;;;;;;38.20;20.10;;;;;;;4.63;100.00;102865.03;6281146;22;20445;-77
2022/12/01 03:42:32;;;;;;;47.30;20.48;;;;;;;4.62;100.00;102861.63;6281268;22;20016;-76
2022/12/01 03:45:16;;;;;;;44.30;19.88;;;;;;;4.60;100.00;102863.84;6254274;22;20023;-76
2022/12/01 03:47:43;;;;;;;42.90;19.73;;;;;;;4.61;100.00;102862.75;6281662;22;20093;-76
2022/12/01 03:50:12;;;;;;;41.10;20.05;;;;;;;4.62;100.00;102877.47;6280908;22;20067;-76
2022/12/01 03:53:01;;;;;;;45.03;19.55;;;;;;;4.61;100.00;102867.25;6281596;22;20016;-76
2022/12/01 03:55:30;;;;;;;42.25;20.25;;;;;;;4.61;100.00;102870.66;6281319;22;20052;-76
2022/12/01 03:58:09;;;;;;;37.38;19.17;;;;;;;4.62;100.00;102871.44;6253919;22;20056;-76
2022/12/01 04:00:37;;;;;;;51.03;21.10;;;;;;;4.59;100.00;102858.91;6281113;22;20016;-76
2022/12/01 04:03:04;;;;;;;42.53;20.65;;;;;;;4.59;100.00;102861.56;6281642;22;20047;-76
2022/12/01 04:05:33;;;;;;;45.50;20.05;;;;;;;4.57;100.00;102867.19;6280524;22;20505;-76
2022/12/01 04:07:59;;;;;;;43.13;20.55;;;;;;;4.58;100.00;102863.44;6281425;22;20048;-76
2022/12/01 04:10:26;;;;;;;45.33;19.77;;;;;;;4.56;100.00;102868.28;6281113;22;20016;-76
2022/12/01 04:12:57;;;;;;;43.05;20.40;;;;;;;4.55;100.00;102866.00;6254411;22;20020;-76
2022/12/01 04:15:25;;;;;;;43.15;20.88;;;;;;;4.53;100.00;102860.31;6281174;22;20016;-76
2022/12/01 04:17:52;;;;;;;44.05;20.60;;;;;;;4.53;100.00;102865.56;6281495;22;20016;-76
2022/12/01 04:20:19;;;;;;;50.33;20.83;;;;;;;4.53;100.00;102870.84;6253522;22;20070;-74
2022/12/01 04:22:46;;;;;;;45.72;20.20;;;;;;;4.53;100.00;102874.25;6281581;22;20016;-74
2022/12/01 04:25:12;;;;;;;46.55;21.25;;;;;;;4.52;100.00;102871.97;6254466;22;20047;-74
2022/12/01 04:27:39;;;;;;;45.28;20.48;;;;;;;4.50;100.00;102872.31;6281505;22;20494;-74
2022/12/01 04:30:07;;;;;;;41.97;19.75;;;;;;;4.52;100.00;102866.69;6281352;22;20074;-74
2022/12/01 04:32:41;;;;;;;44.97;21.38;;;;;;;4.53;100.00;102881.41;6280955;22;20493;-74
2022/12/01 04:35:09;;;;;;;49.28;20.65;;;;;;;4.51;100.00;102875.72;6280883;22;20413;-74
2022/12/01 04:37:36;;;;;;;39.00;19.48;;;;;;;4.50;100.00;102874.19;6280425;22;20019;-76
2022/12/01 04:40:03;;;;;;;55.13;21.70;;;;;;;4.49;100.00;102883.19;6281213;22;20087;-76
2022/12/01 04:42:30;;;;;;;50.95;22.30;;;;;;;4.50;100.00;102876.81;6280923;22;20091;-74
2022/12/01 04:44:56;;;;;;;45.67;20.48;;;;;;;4.50;100.00;102871.53;6281058;22;20016;-76
2022/12/01 04:47:23;;;;;;;44.58;20.08;;;;;;;4.50;100.00;102874.94;6280296;22;20027;-76
2022/12/01 04:49:49;;;;;;;50.33;21.77;;;;;;;4.48;100.00;102874.53;6280799;22;20079;-74
2022/12/01 04:52:16;;;;;;;51.05;21.05;;;;;;;4.50;100.00;102874.94;6280855;22;20020;-74
2022/12/01 04:54:43;;;;;;;49.45;20.50;;;;;;;4.50;100.00;102867.03;6281390;22;20091;-74
2022/12/01 04:57:09;;;;;;;52.55;22.30;;;;;;;4.51;100.00;102873.84;6281215;22;20048;-74
2022/12/01 04:59:36;;;;;;;42.45;20.63;;;;;;;4.50;100.00;102868.91;6280591;22;20095;-74
2022/12/01 05:02:02;;;;;;;51.13;21.52;;;;;;;4.51;100.00;102867.78;6280538;22;20517;-74
2022/12/01 05:04:31;;;;;;;47.22;21.55;;;;;;;4.51;100.00;102862.53;6280807;22;20154;-75
2022/12/01 05:06:57;;;;;;;45.45;21.65;;;;;;;4.50;100.00;102871.53;6281242;22;20062;-75
2022/12/01 05:09:24;;;;;;;50.25;22.17;;;;;;;4.49;100.00;102870.00;6281185;22;20067;-74
2022/12/01 05:11:50;;;;;;;49.85;21.50;;;;;;;4.47;100.00;102873.00;6281049;22;20074;-75
2022/12/01 05:14:17;;;;;;;52.88;21.40;;;;;;;4.46;100.00;102874.09;6280968;22;20135;-75
2022/12/01 05:16:43;;;;;;;48.70;20.42;;;;;;;4.45;100.00;102869.19;6280732;22;20016;-75
2022/12/01 05:21:55;;;;;;;49.45;20.75;;;;;;;4.40;100.00;102875.47;6281185;22;20016;-75
2022/12/01 05:24:21;;;;;;;42.42;20.67;;;;;;;4.34;100.00;102876.88;6281007;22;20456;-75
2022/12/01 05:26:48;;;;;;;54.40;21.98;;;;;;;4.31;100.00;102878.34;6280897;22;20016;-75
2022/12/01 05:29:14;;;;;;;48.22;20.88;;;;;;;4.29;100.00;102885.81;6253704;22;20421;-74
2022/12/01 05:31:41;;;;;;;44.17;20.35;;;;;;;4.28;100.00;102881.66;6280352;22;20025;-75
2022/12/01 05:34:08;;;;;;;52.05;21.08;;;;;;;4.25;100.00;102890.25;6254016;22;20480;-75
2022/12/01 05:36:35;;;;;;;49.08;20.00;;;;;;;4.25;100.00;102894.75;6280664;22;20016;-75
2022/12/01 05:39:02;;;;;;;46.00;21.27;;;;;;;4.23;100.00;102894.34;6280904;22;20023;-75
2022/12/01 05:41:29;;;;;;;46.65;20.42;;;;;;;4.21;100.00;102894.69;6280691;22;20020;-75
2022/12/01 05:43:55;;;;;;;49.05;20.73;;;;;;;4.21;100.00;102889.41;6280401;22;20023;-75
2022/12/01 05:46:22;;;;;;;45.38;19.88;;;;;;;4.22;100.00;102887.53;6280010;22;20485;-75
2022/12/01 05:48:48;;;;;;;51.38;21.70;;;;;;;4.22;100.00;102888.28;6281574;22;20428;-75
2022/12/01 05:51:16;;;;;;;55.15;23.05;;;;;;;4.21;100.00;102891.28;6281686;22;20414;-75
2022/12/01 05:53:43;;;;;;;46.00;21.50;;;;;;;4.22;100.00;102887.53;6282214;22;20078;-75
2022/12/01 05:56:10;;;;;;;50.22;20.67;;;;;;;4.24;100.00;102886.09;6282093;22;20022;-75
2022/12/01 05:58:36;;;;;;;49.42;21.55;;;;;;;4.24;100.00;102887.97;6281845;22;20016;-75
2022/12/01 06:01:03;;;;;;;56.25;22.25;;;;;;;4.25;100.00;102894.75;6281533;22;20532;-75
2022/12/01 06:03:29;;;;;;;51.90;20.77;;;;;;;4.24;100.00;102880.81;6281868;22;20046;-75
2022/12/01 06:05:56;;;;;;;53.63;21.95;;;;;;;4.23;100.00;102875.88;6281978;22;20114;-74
2022/12/01 06:08:22;;;;;;;48.80;20.85;;;;;;;4.21;100.00;102876.22;6281741;22;20015;-75
2022/12/01 06:10:49;;;;;;;41.72;19.83;;;;;;;4.18;100.00;102873.50;6282264;22;20059;-74
2022/12/01 06:13:15;;;;;;;52.55;21.13;;;;;;;4.13;100.00;102877.16;6281748;22;20016;-74
2022/12/01 06:15:42;;;;;;;47.65;20.98;;;;;;;4.08;100.00;102876.66;6281508;22;20051;-75
2022/12/01 06:18:08;;;;;;;47.60;20.65;;;;;;;4.00;100.00;102881.00;6281992;22;20035;-75
2022/12/01 06:20:34;;;;;;;43.08;18.52;;;;;;;3.94;100.00;102885.03;6281458;22;20489;-74
2022/12/01 06:23:01;;;;;;;45.63;19.70;;;;;;;3.90;100.00;102884.19;6255118;22;20047;-75
2022/12/01 06:25:28;;;;;;;50.90;21.60;;;;;;;3.87;100.00;102892.75;6279926;22;20082;-75
2022/12/01 06:27:56;;;;;;;47.13;20.25;;;;;;;3.83;100.00;102889.28;6281663;22;20780;-75
2022/12/01 06:30:23;;;;;;;45.90;20.30;;;;;;;3.81;100.00;102892.25;6281185;22;20016;-75
2022/12/01 06:32:49;;;;;;;48.42;20.67;;;;;;;3.76;100.00;102897.78;6254576;22;20073;-75
2022/12/01 06:35:16;;;;;;;45.70;21.00;;;;;;;3.73;100.00;102897.69;6254353;22;20448;-75
2022/12/01 06:37:42;;;;;;;49.83;20.58;;;;;;;3.68;100.00;102893.44;6280114;22;20016;-75
2022/12/01 06:40:09;;;;;;;48.85;20.40;;;;;;;3.64;100.00;102895.97;6281950;22;20437;-75
2022/12/01 06:42:36;;;;;;;44.45;20.10;;;;;;;3.61;100.00;102895.88;6281534;22;20092;-75
2022/12/01 06:45:03;;;;;;;44.05;19.65;;;;;;;3.58;100.00;102902.63;6281147;22;20083;-75
2022/12/01 06:47:29;;;;;;;52.85;20.70;;;;;;;3.54;100.00;102907.03;6281395;22;20020;-75
2022/12/01 06:49:56;;;;;;;54.53;20.73;;;;;;;3.50;100.00;102906.16;6281585;22;20020;-75
2022/12/01 06:52:22;;;;;;;50.55;22.02;;;;;;;3.47;100.00;102898.94;6281575;22;20017;-75
2022/12/01 06:54:49;;;;;;;50.33;20.80;;;;;;;3.44;100.00;102901.50;6281759;22;20012;-75
2022/12/01 06:57:15;;;;;;;47.80;20.95;;;;;;;3.40;100.00;102908.53;6281507;22;20016;-74
2022/12/01 06:59:42;;;;;;;46.72;20.75;;;;;;;3.38;100.00;102919.41;6280827;22;20020;-74
2022/12/01 07:02:10;;;;;;;50.90;21.23;;;;;;;3.34;100.00;102915.91;6254303;22;20442;-75
2022/12/01 07:04:36;;;;;;;46.00;19.17;;;;;;;3.31;100.00;102909.44;6281447;22;20016;-75
2022/12/01 07:07:04;;;;;;;54.80;21.50;;;;;;;3.26;100.00;102925.47;6281667;22;20020;-75
2022/12/01 07:09:31;;;;;;;47.90;21.38;;;;;;;3.23;100.00;102914.84;6282226;22;20412;-74
2022/12/01 07:11:59;;;;;;;50.53;21.17;;;;;;;3.22;100.00;102921.22;6279844;22;20092;-75
2022/12/01 07:14:26;;;;;;;46.50;20.38;;;;;;;3.17;100.00;102924.09;6279210;22;20035;-74
2022/12/01 07:16:52;;;;;;;46.50;19.95;;;;;;;3.16;100.00;102925.22;6279730;22;20631;-75
2022/12/01 07:19:19;;;;;;;49.72;20.73;;;;;;;3.12;100.00;102929.59;6279726;22;20388;-75
2022/12/01 07:21:46;;;;;;;51.28;21.38;;;;;;;3.10;100.00;102927.31;6282168;22;20408;-74
2022/12/01 07:24:12;;;;;;;58.10;21.55;;;;;;;3.08;100.00;102936.63;6282198;22;20012;-76
2022/12/01 07:26:40;;;;;;;54.63;21.83;;;;;;;3.07;100.00;102943.00;6282080;22;20013;-76
2022/12/01 07:29:08;;;;;;;56.92;22.95;;;;;;;3.04;100.00;102944.44;6281588;22;20020;-75
2022/12/01 07:31:35;;;;;;;53.08;21.65;;;;;;;3.03;100.00;102948.16;6282603;22;20036;-75
2022/12/01 07:34:02;;;;;;;57.40;22.15;;;;;;;3.03;100.00;102950.78;6282268;22;20012;-76
2022/12/01 07:36:29;;;;;;;51.78;21.90;;;;;;;3.02;100.00;102951.88;6254798;22;20017;-76
2022/12/01 07:38:55;;;;;;;53.10;22.13;;;;;;;3.02;100.00;102954.53;6282069;22;20060;-76
2022/12/01 07:41:22;;;;;;;51.15;21.60;;;;;;;3.00;100.00;102964.63;6254609;22;20012;-76
2022/12/01 07:43:49;;;;;;;56.60;22.23;;;;;;;3.00;100.00;102954.84;6281672;22;20016;-76
2022/12/01 07:46:19;;;;;;;49.25;21.25;;;;;;;2.99;100.00;102961.22;6282178;22;20092;-76
2022/12/01 07:48:49;;;;;;;64.70;22.73;;;;;;;3.00;100.00;102959.34;6282226;22;20410;-75
2022/12/01 07:51:16;;;;;;;61.88;22.70;;;;;;;3.01;100.00;102956.38;6282147;22;20086;-75
2022/12/01 07:53:44;;;;;;;66.88;23.00;;;;;;;3.03;100.00;102956.06;6282258;22;20012;-74
2022/12/01 07:56:11;;;;;;;52.70;22.30;;;;;;;3.05;100.00;102961.00;6281719;22;20020;-75
2022/12/01 07:58:38;;;;;;;63.85;23.83;;;;;;;3.06;100.00;102963.28;6282070;22;20107;-76
2022/12/01 08:01:12;;;;;;;54.65;21.75;;;;;;;3.11;100.00;102968.31;6282198;22;20454;-76
2022/12/01 08:03:40;;;;;;;53.80;23.95;;;;;;;3.14;100.00;102966.88;6282147;22;20016;-75
2022/12/01 08:06:07;;;;;;;52.30;22.30;;;;;;;3.20;100.00;102976.09;6281647;22;20039;-76
2022/12/01 08:08:35;;;;;;;58.15;22.88;;;;;;;3.23;100.00;102970.88;6282016;22;20390;-76
2022/12/01 08:11:06;;;;;;;53.67;22.73;;;;;;;3.26;100.00;102967.59;6281138;22;20044;-76
2022/12/01 08:13:33;;;;;;;59.90;23.30;;;;;;;3.30;100.00;102970.31;6281760;22;20107;-77
2022/12/01 08:16:05;;;;;;;62.95;23.73;;;;;;;3.36;100.00;102974.25;6281883;22;20453;-78
2022/12/01 08:18:39;;;;;;;57.92;23.27;;;;;;;3.39;100.00;102976.22;6281872;22;20027;-77
2022/12/01 08:21:08;;;;;;;63.40;23.85;;;;;;;3.44;100.00;102977.84;6282054;22;20012;-77
2022/12/01 08:23:34;;;;;;;54.70;22.60;;;;;;;3.49;100.00;102982.88;6254485;22;20480;-77
2022/12/01 08:26:03;;;;;;;63.95;25.30;;;;;;;3.52;100.00;102979.56;6228635;22;20016;-77
2022/12/01 08:28:29;;;;;;;65.22;23.23;;;;;;;3.55;100.00;102982.31;6281622;22;20492;-77
2022/12/01 08:30:56;;;;;;;57.90;23.80;;;;;;;3.61;100.00;102985.44;6281883;22;20023;-74
2022/12/01 08:33:23;;;;;;;59.45;23.23;;;;;;;3.65;100.00;102988.94;6281912;22;20016;-76
2022/12/01 08:35:49;;;;;;;60.53;25.10;;;;;;;3.69;100.00;102989.78;6281617;22;20050;-76
2022/12/01 08:38:15;;;;;;;60.28;24.02;;;;;;;3.73;100.00;102992.53;6281956;22;20021;-76
2022/12/01 08:40:42;;;;;;;57.35;23.00;;;;;;;3.77;100.00;102998.66;6281465;22;20012;-75
2022/12/01 08:43:08;;;;;;;57.72;24.15;;;;;;;3.80;100.00;102990.06;6281571;22;20067;-75
2022/12/01 08:45:48;;;;;;;51.42;23.45;;;;;;;3.83;100.00;102992.03;6281838;22;20430;-75
2022/12/01 08:48:14;;;;;;;58.22;24.13;;;;;;;3.87;100.00;102992.88;6281812;22;20441;-76
2022/12/01 08:50:41;;;;;;;62.72;23.65;;;;;;;3.91;100.00;102994.50;6281912;22;20008;-76
2022/12/01 08:53:07;;;;;;;58.42;24.58;;;;;;;3.94;100.00;102991.22;6281903;22;20464;-74
2022/12/01 08:55:34;;;;;;;54.17;24.83;;;;;;;3.97;100.00;102998.44;6253829;22;20020;-74
2022/12/01 08:58:00;;;;;;;59.38;25.25;;;;;;;4.01;100.00;103003.78;6254722;22;20024;-74
2022/12/01 09:00:28;;;;;;;59.10;25.25;;;;;;;4.05;100.00;102993.31;6281795;22;20012;-75
2022/12/01 09:02:54;;;;;;;60.42;26.20;;;;;;;4.08;100.00;102993.41;6281690;22;20115;-75
2022/12/01 09:05:20;;;;;;;60.60;25.15;;;;;;;4.12;100.00;102998.75;6281804;22;20471;-77
2022/12/01 09:08:29;;;;;;;55.90;25.13;;;;;;;4.15;100.00;102987.53;6281450;22;20020;-75
2022/12/01 09:10:33;;;;;;;63.03;25.08;;;;;;;4.18;100.00;102997.41;6280543;22;20075;-75
2022/12/01 09:13:00;;;;;;;59.25;25.15;;;;;;;4.21;100.00;103000.13;6281725;22;20087;-75
2022/12/01 09:15:26;;;;;;;59.92;24.80;;;;;;;4.23;100.00;102979.47;6254790;22;20118;-75
2022/12/01 09:17:53;;;;;;;60.22;24.73;;;;;;;4.27;100.00;102990.88;6281544;22;20020;-75
2022/12/01 09:20:19;;;;;;;59.35;25.13;;;;;;;4.29;100.00;102991.28;6281462;22;20012;-75
2022/12/01 09:22:45;;;;;;;61.63;25.80;;;;;;;4.31;100.00;102983.03;6280877;22;20095;-75
2022/12/01 09:25:13;;;;;;;60.90;26.27;;;;;;;4.31;100.00;102983.81;6281661;22;20012;-75
2022/12/01 09:27:40;;;;;;;62.33;24.80;;;;;;;4.33;100.00;102992.16;6281444;22;20441;-75
2022/12/01 09:30:07;;;;;;;61.67;25.45;;;;;;;4.34;100.00;102985.75;6281538;22;20012;-75
2022/12/01 09:32:33;;;;;;;64.65;26.48;;;;;;;4.39;100.00;102986.63;6281653;22;20031;-75
2022/12/01 09:35:00;;;;;;;55.88;25.27;;;;;;;4.39;100.00;102989.25;6281321;22;20012;-76
2022/12/01 09:37:26;;;;;;;61.08;25.90;;;;;;;4.40;100.00;102980.97;6253488;22;20115;-75
2022/12/01 09:39:52;;;;;;;57.45;24.80;;;;;;;4.43;100.00;102982.94;6281313;22;20018;-79
2022/12/01 09:42:26;;;;;;;55.25;26.05;;;;;;;4.44;100.00;102984.47;6254461;22;20012;-79
2022/12/01 09:45:03;;;;;;;54.42;26.10;;;;;;;4.46;100.00;102978.84;6281066;22;20024;-76
2022/12/01 09:47:33;;;;;;;57.17;25.17;;;;;;;4.50;100.00;102982.31;6281252;22;20025;-78
2022/12/01 09:50:09;;;;;;;60.97;25.17;;;;;;;4.52;100.00;102975.59;6281327;22;20072;-76
2022/12/01 09:52:45;;;;;;;58.67;25.50;;;;;;;4.55;100.00;102974.91;6253843;22;20529;-76
2022/12/01 09:55:13;;;;;;;61.85;25.60;;;;;;;4.56;100.00;102965.91;6254525;22;20016;-77
2022/12/01 09:57:42;;;;;;;58.90;24.85;;;;;;;4.61;100.00;102963.00;6281445;22;20859;-77
2022/12/01 10:00:16;;;;;;;59.22;26.75;;;;;;;4.64;100.00;102958.91;6281184;22;20088;-77
2022/12/01 10:02:51;;;;;;;63.10;26.45;;;;;;;4.67;100.00;102956.34;6281375;22;20087;-76
2022/12/01 10:05:20;;;;;;;63.28;26.42;;;;;;;4.69;100.00;102950.72;6281456;22;20071;-76
2022/12/01 10:07:54;;;;;;;65.18;26.17;;;;;;;4.71;100.00;102945.09;6253614;22;20103;-76
2022/12/01 10:10:32;;;;;;;60.20;26.38;;;;;;;4.75;100.00;102943.31;6281452;22;20012;-76
2022/12/01 10:12:59;;;;;;;66.82;26.77;;;;;;;4.78;100.00;102956.56;6281148;22;20446;-76
2022/12/01 10:15:44;;;;;;;64.20;26.65;;;;;;;4.85;100.00;102956.69;6281062;22;20438;-76
2022/12/01 10:18:45;;;;;;;59.35;26.02;;;;;;;4.91;100.00;102952.69;6254123;22;20472;-78
2022/12/01 10:21:35;;;;;;;61.17;26.23;;;;;;;5.00;100.00;102961.16;6253660;22;20386;-75
2022/12/01 10:24:26;;;;;;;64.40;26.20;;;;;;;5.08;100.00;102956.03;6280911;22;20472;-75
2022/12/01 10:27:01;;;;;;;58.38;24.90;;;;;;;5.14;100.00;102959.94;6281211;22;20050;-75
2022/12/01 10:29:46;;;;;;;68.05;26.33;;;;;;;5.16;100.00;102955.84;6281008;22;20020;-75
2022/12/01 10:32:18;;;;;;;67.30;26.02;;;;;;;5.19;100.00;102957.00;6280965;22;20019;-75
2022/12/01 10:34:46;;;;;;;59.05;26.95;;;;;;;5.27;100.00;102964.69;6280926;22;20012;-75
2022/12/01 10:37:20;;;;;;;53.35;24.63;;;;;;;5.35;100.00;102957.69;6281774;22;20016;-75
2022/12/01 10:39:50;;;;;;;55.03;24.95;;;;;;;5.40;100.00;102961.91;6255302;22;20877;-74
2022/12/01 10:42:36;;;;;;;56.08;25.65;;;;;;;5.44;100.00;102965.38;6282716;22;20016;-75
2022/12/01 10:45:12;;;;;;;65.18;27.65;;;;;;;5.45;100.00;102957.13;6282337;22;20469;-75
2022/12/01 10:48:18;;;;;;;60.17;27.00;;;;;;;5.48;100.00;102959.06;6282463;22;20016;-75
2022/12/01 10:50:48;;;;;;;51.72;25.23;;;;;;;5.50;99.29;102956.84;6281765;22;20023;-76
2022/12/01 10:53:24;;;;;;;62.08;26.50;;;;;;;5.49;98.97;102955.31;6282406;22;20035;-77
2022/12/01 10:55:59;;;;;;;59.47;26.48;;;;;;;5.52;98.95;102959.13;6281500;22;20013;-80
2022/12/01 10:58:25;;;;;;;57.72;25.65;;;;;;;5.53;98.51;102958.00;6255096;22;20051;-78
2022/12/01 11:00:59;;;;;;;58.38;26.33;;;;;;;5.51;98.58;102958.38;6282260;22;20457;-77
2022/12/01 11:03:30;;;;;;;60.45;26.92;;;;;;;5.53;98.16;102958.78;6282792;22;20070;-79
2022/12/01 11:05:59;;;;;;;65.35;28.20;;;;;;;5.52;97.89;102953.84;6281080;22;20090;-78
2022/12/01 11:08:40;;;;;;;55.20;26.60;;;;;;;5.51;97.89;102953.09;6283252;22;20016;-78
2022/12/01 11:11:32;;;;;;;62.03;25.88;;;;;;;5.50;97.74;102954.19;6255301;22;20038;-79
2022/12/01 11:14:04;;;;;;;62.80;26.90;;;;;;;5.49;97.31;102943.97;6282071;22;20353;-76
2022/12/01 11:16:34;;;;;;;;;;;;;;;5.51;97.99;102947.78;6283032;22;20013;-78
2022/12/01 11:19:31;;;;;;;52.35;23.98;;;;;;;5.52;97.67;102941.41;6281737;22;19919;-76
2022/12/01 11:22:18;;;;;;;55.45;24.98;;;;;;;5.51;97.13;102947.78;6281245;22;20020;-78
2022/12/01 11:24:56;;;;;;;55.13;24.48;;;;;;;5.51;96.94;102945.16;6282307;22;20016;-76
2022/12/01 11:27:26;;;;;;;56.65;24.60;;;;;;;5.52;96.34;102930.84;6282588;22;20012;-77
2022/12/01 11:30:01;;;;;;;54.67;25.55;;;;;;;5.58;96.05;102932.06;6281730;22;20040;-76